MMMX/MEX METAR and TAF weather

Enter ICAO airport designator
Station Type Date Time Source
MMMX METAR 2019/08/20 09:45 UTC NOAA

MMMX 200945Z 31007KT 15SM FEW200 13/07 A3030 NOSIG RMK 8/002


Station Type Date Time Source
MMMX Decoded METAR 2019/08/20 09:45 UTC NOAA

Mexico City / Licenci, Mexico (MMMX) 19-26N 099-06W
Aug 20, 2019 - 05:45 AM EDT / 2019.08.20 0945 UTC
Wind: from the NW (310 degrees) at 8 MPH (7 KT):0
Visibility: 15 mile(s):0
Sky conditions: mostly clear
Temperature: 55 F (13 C)
Dew Point: 44 F (7 C)
Relative Humidity: 66%
Pressure (altimeter): 30.3 in. Hg (1026 hPa)
ob: MMMX 200945Z 31007KT 15SM FEW200 13/07 A3030 NOSIG RMK 8/002
cycle: 10

Station Type Date Time Source
MMMX TAF 2019/08/20 12:07 UTC NOAA

TAF MMMX 201000Z 2012/2118 31007KT P6SM SCT200 TX25/2022Z TN15/2012Z
FM201800 02010KT P6SM SCT020 SCT080 BKN220 PROB40 2023/2103 5SM -TSRA BKN020CB OVC080
FM210700 02005KT P6SM SCT080 BKN200
BECMG 2111/2113 35005KT

Example: see airport list